sensor_id;sensor_type;location;lat;lon;timestamp;P1;durP1;ratioP1;P2;durP2;ratioP2
8268;SDS011;4174;48.304;16.364;2023-02-28T00:02:18;14.80;;;5.10;;
8268;SDS011;4174;48.304;16.364;2023-02-28T00:08:24;14.10;;;5.30;;
8268;SDS011;4174;48.304;16.364;2023-02-28T00:14:29;13.68;;;5.10;;
8268;SDS011;4174;48.304;16.364;2023-02-28T00:20:32;14.57;;;5.30;;
8268;SDS011;4174;48.304;16.364;2023-02-28T00:26:38;12.33;;;5.07;;
8268;SDS011;4174;48.304;16.364;2023-02-28T00:32:43;13.93;;;5.40;;
8268;SDS011;4174;48.304;16.364;2023-02-28T00:38:48;16.67;;;5.50;;
8268;SDS011;4174;48.304;16.364;2023-02-28T00:44:54;14.05;;;5.20;;
8268;SDS011;4174;48.304;16.364;2023-02-28T00:51:00;14.45;;;5.68;;
8268;SDS011;4174;48.304;16.364;2023-02-28T00:57:10;15.27;;;5.63;;
8268;SDS011;4174;48.304;16.364;2023-02-28T01:03:15;14.67;;;5.50;;
8268;SDS011;4174;48.304;16.364;2023-02-28T01:09:19;15.40;;;5.65;;
8268;SDS011;4174;48.304;16.364;2023-02-28T01:15:26;14.57;;;5.53;;
8268;SDS011;4174;48.304;16.364;2023-02-28T01:21:31;14.93;;;5.50;;
8268;SDS011;4174;48.304;16.364;2023-02-28T01:27:36;13.52;;;5.50;;
8268;SDS011;4174;48.304;16.364;2023-02-28T01:33:40;14.57;;;5.87;;
8268;SDS011;4174;48.304;16.364;2023-02-28T01:39:45;14.90;;;5.67;;
8268;SDS011;4174;48.304;16.364;2023-02-28T01:45:49;16.50;;;5.90;;
8268;SDS011;4174;48.304;16.364;2023-02-28T01:51:57;19.90;;;6.10;;
8268;SDS011;4174;48.304;16.364;2023-02-28T01:58:03;13.48;;;5.40;;
8268;SDS011;4174;48.304;16.364;2023-02-28T02:04:06;15.63;;;5.93;;
8268;SDS011;4174;48.304;16.364;2023-02-28T02:10:13;16.48;;;5.95;;
8268;SDS011;4174;48.304;16.364;2023-02-28T02:36:38;15.73;;;6.23;;
8268;SDS011;4174;48.304;16.364;2023-02-28T02:41:52;16.77;;;6.20;;
8268;SDS011;4174;48.304;16.364;2023-02-28T02:47:58;16.23;;;6.30;;
8268;SDS011;4174;48.304;16.364;2023-02-28T02:54:08;17.00;;;6.67;;
8268;SDS011;4174;48.304;16.364;2023-02-28T03:00:13;17.13;;;6.30;;
8268;SDS011;4174;48.304;16.364;2023-02-28T03:06:18;17.87;;;6.70;;
8268;SDS011;4174;48.304;16.364;2023-02-28T03:12:28;17.08;;;6.68;;
8268;SDS011;4174;48.304;16.364;2023-02-28T03:18:46;17.92;;;7.07;;
8268;SDS011;4174;48.304;16.364;2023-02-28T03:25:07;18.40;;;7.55;;
8268;SDS011;4174;48.304;16.364;2023-02-28T03:31:12;16.30;;;6.80;;
8268;SDS011;4174;48.304;16.364;2023-02-28T03:37:19;18.13;;;6.80;;
8268;SDS011;4174;48.304;16.364;2023-02-28T03:43:23;17.02;;;6.43;;
8268;SDS011;4174;48.304;16.364;2023-02-28T03:49:32;17.95;;;6.65;;
8268;SDS011;4174;48.304;16.364;2023-02-28T03:55:38;16.85;;;6.75;;
8268;SDS011;4174;48.304;16.364;2023-02-28T04:01:47;17.52;;;6.45;;
8268;SDS011;4174;48.304;16.364;2023-02-28T04:07:54;18.37;;;6.70;;
8268;SDS011;4174;48.304;16.364;2023-02-28T04:14:05;19.17;;;6.90;;
8268;SDS011;4174;48.304;16.364;2023-02-28T04:20:10;17.07;;;6.70;;
8268;SDS011;4174;48.304;16.364;2023-02-28T04:26:16;17.52;;;6.60;;
8268;SDS011;4174;48.304;16.364;2023-02-28T04:32:21;17.00;;;6.93;;
8268;SDS011;4174;48.304;16.364;2023-02-28T04:38:27;16.10;;;6.80;;
8268;SDS011;4174;48.304;16.364;2023-02-28T04:44:36;17.57;;;6.90;;
8268;SDS011;4174;48.304;16.364;2023-02-28T04:50:43;18.62;;;6.82;;
8268;SDS011;4174;48.304;16.364;2023-02-28T04:56:52;18.70;;;6.80;;
8268;SDS011;4174;48.304;16.364;2023-02-28T05:02:57;18.80;;;6.90;;
8268;SDS011;4174;48.304;16.364;2023-02-28T05:09:03;18.00;;;7.00;;
8268;SDS011;4174;48.304;16.364;2023-02-28T05:15:12;16.97;;;7.03;;
8268;SDS011;4174;48.304;16.364;2023-02-28T05:27:31;18.80;;;7.33;;
8268;SDS011;4174;48.304;16.364;2023-02-28T05:33:37;19.10;;;7.72;;
8268;SDS011;4174;48.304;16.364;2023-02-28T05:39:43;20.23;;;8.50;;
8268;SDS011;4174;48.304;16.364;2023-02-28T05:52:42;22.23;;;12.37;;
8268;SDS011;4174;48.304;16.364;2023-02-28T05:58:47;21.93;;;12.57;;
8268;SDS011;4174;48.304;16.364;2023-02-28T06:04:52;22.80;;;13.20;;
8268;SDS011;4174;48.304;16.364;2023-02-28T06:10:57;23.93;;;12.80;;
8268;SDS011;4174;48.304;16.364;2023-02-28T06:17:02;24.80;;;14.50;;
8268;SDS011;4174;48.304;16.364;2023-02-28T06:23:07;23.73;;;13.90;;
8268;SDS011;4174;48.304;16.364;2023-02-28T06:29:12;22.33;;;11.80;;
8268;SDS011;4174;48.304;16.364;2023-02-28T06:35:21;21.42;;;10.70;;
8268;SDS011;4174;48.304;16.364;2023-02-28T06:41:26;20.27;;;8.60;;
8268;SDS011;4174;48.304;16.364;2023-02-28T06:47:31;18.35;;;7.00;;
8268;SDS011;4174;48.304;16.364;2023-02-28T06:53:37;20.53;;;7.50;;
8268;SDS011;4174;48.304;16.364;2023-02-28T06:59:42;20.27;;;7.55;;
8268;SDS011;4174;48.304;16.364;2023-02-28T07:05:48;19.20;;;6.93;;
8268;SDS011;4174;48.304;16.364;2023-02-28T07:11:53;21.90;;;7.73;;
8268;SDS011;4174;48.304;16.364;2023-02-28T07:18:16;19.95;;;7.57;;
8268;SDS011;4174;48.304;16.364;2023-02-28T07:24:22;22.17;;;7.90;;
8268;SDS011;4174;48.304;16.364;2023-02-28T07:30:26;21.47;;;7.53;;
8268;SDS011;4174;48.304;16.364;2023-02-28T07:36:30;19.27;;;7.37;;
8268;SDS011;4174;48.304;16.364;2023-02-28T07:42:37;18.60;;;7.45;;
8268;SDS011;4174;48.304;16.364;2023-02-28T07:48:42;18.60;;;7.60;;
8268;SDS011;4174;48.304;16.364;2023-02-28T07:54:47;20.07;;;7.80;;
8268;SDS011;4174;48.304;16.364;2023-02-28T08:01:04;22.33;;;7.90;;
8268;SDS011;4174;48.304;16.364;2023-02-28T08:07:07;21.33;;;7.73;;
8268;SDS011;4174;48.304;16.364;2023-02-28T08:13:11;18.12;;;7.40;;
8268;SDS011;4174;48.304;16.364;2023-02-28T08:19:15;18.50;;;7.22;;
8268;SDS011;4174;48.304;16.364;2023-02-28T08:25:21;21.27;;;8.47;;
8268;SDS011;4174;48.304;16.364;2023-02-28T08:31:27;21.37;;;8.70;;
8268;SDS011;4174;48.304;16.364;2023-02-28T08:37:33;20.47;;;8.73;;
8268;SDS011;4174;48.304;16.364;2023-02-28T08:43:39;20.90;;;8.40;;
8268;SDS011;4174;48.304;16.364;2023-02-28T08:49:44;21.52;;;9.35;;
8268;SDS011;4174;48.304;16.364;2023-02-28T08:55:56;20.48;;;8.60;;
8268;SDS011;4174;48.304;16.364;2023-02-28T09:02:02;20.73;;;8.83;;
8268;SDS011;4174;48.304;16.364;2023-02-28T09:08:09;21.97;;;8.97;;
8268;SDS011;4174;48.304;16.364;2023-02-28T09:14:16;21.47;;;9.43;;
8268;SDS011;4174;48.304;16.364;2023-02-28T09:20:21;21.57;;;9.30;;
8268;SDS011;4174;48.304;16.364;2023-02-28T09:26:26;20.97;;;9.17;;
8268;SDS011;4174;48.304;16.364;2023-02-28T09:32:32;19.10;;;9.23;;
8268;SDS011;4174;48.304;16.364;2023-02-28T09:38:38;21.55;;;9.95;;
8268;SDS011;4174;48.304;16.364;2023-02-28T09:44:45;21.33;;;9.83;;
8268;SDS011;4174;48.304;16.364;2023-02-28T09:50:51;22.03;;;10.37;;
8268;SDS011;4174;48.304;16.364;2023-02-28T09:56:59;19.77;;;9.50;;
8268;SDS011;4174;48.304;16.364;2023-02-28T10:03:18;20.40;;;9.80;;
8268;SDS011;4174;48.304;16.364;2023-02-28T10:09:35;21.17;;;9.95;;
8268;SDS011;4174;48.304;16.364;2023-02-28T10:15:41;20.73;;;8.87;;
8268;SDS011;4174;48.304;16.364;2023-02-28T10:21:54;20.90;;;8.40;;
8268;SDS011;4174;48.304;16.364;2023-02-28T10:28:04;18.20;;;7.65;;
8268;SDS011;4174;48.304;16.364;2023-02-28T10:34:20;17.55;;;8.38;;
8268;SDS011;4174;48.304;16.364;2023-02-28T10:40:28;17.45;;;7.75;;
8268;SDS011;4174;48.304;16.364;2023-02-28T10:46:33;19.80;;;8.80;;
8268;SDS011;4174;48.304;16.364;2023-02-28T10:58:58;21.58;;;9.98;;
8268;SDS011;4174;48.304;16.364;2023-02-28T11:11:41;21.13;;;9.10;;
8268;SDS011;4174;48.304;16.364;2023-02-28T11:17:54;20.00;;;9.03;;
8268;SDS011;4174;48.304;16.364;2023-02-28T11:24:04;18.33;;;8.70;;
8268;SDS011;4174;48.304;16.364;2023-02-28T11:30:22;17.70;;;8.48;;
8268;SDS011;4174;48.304;16.364;2023-02-28T11:36:30;19.10;;;8.23;;
8268;SDS011;4174;48.304;16.364;2023-02-28T11:42:38;17.67;;;8.25;;
8268;SDS011;4174;48.304;16.364;2023-02-28T11:55:37;18.27;;;8.20;;
8268;SDS011;4174;48.304;16.364;2023-02-28T12:01:50;18.07;;;8.50;;
8268;SDS011;4174;48.304;16.364;2023-02-28T12:08:47;20.10;;;8.98;;
8268;SDS011;4174;48.304;16.364;2023-02-28T12:14:59;18.55;;;8.23;;
8268;SDS011;4174;48.304;16.364;2023-02-28T12:21:27;16.23;;;7.95;;
8268;SDS011;4174;48.304;16.364;2023-02-28T12:27:38;16.27;;;7.60;;
8268;SDS011;4174;48.304;16.364;2023-02-28T12:33:50;20.70;;;8.60;;
8268;SDS011;4174;48.304;16.364;2023-02-28T12:39:54;16.83;;;7.93;;
8268;SDS011;4174;48.304;16.364;2023-02-28T12:46:10;16.90;;;8.20;;
8268;SDS011;4174;48.304;16.364;2023-02-28T12:52:23;18.07;;;8.27;;
8268;SDS011;4174;48.304;16.364;2023-02-28T12:58:45;16.90;;;8.02;;
8268;SDS011;4174;48.304;16.364;2023-02-28T13:04:55;17.05;;;8.05;;
8268;SDS011;4174;48.304;16.364;2023-02-28T13:11:11;16.35;;;7.37;;
8268;SDS011;4174;48.304;16.364;2023-02-28T13:17:30;17.53;;;7.60;;
8268;SDS011;4174;48.304;16.364;2023-02-28T13:23:37;17.60;;;8.10;;
8268;SDS011;4174;48.304;16.364;2023-02-28T13:29:44;16.98;;;7.87;;
8268;SDS011;4174;48.304;16.364;2023-02-28T13:48:38;16.97;;;8.10;;
8268;SDS011;4174;48.304;16.364;2023-02-28T13:54:51;16.80;;;8.00;;
8268;SDS011;4174;48.304;16.364;2023-02-28T14:07:33;17.47;;;8.07;;
8268;SDS011;4174;48.304;16.364;2023-02-28T14:13:41;14.20;;;6.43;;
8268;SDS011;4174;48.304;16.364;2023-02-28T14:19:47;13.37;;;6.50;;
8268;SDS011;4174;48.304;16.364;2023-02-28T14:25:54;14.60;;;6.70;;
8268;SDS011;4174;48.304;16.364;2023-02-28T14:32:15;14.38;;;7.18;;
8268;SDS011;4174;48.304;16.364;2023-02-28T14:38:38;15.57;;;7.85;;
8268;SDS011;4174;48.304;16.364;2023-02-28T14:44:53;17.12;;;7.72;;
8268;SDS011;4174;48.304;16.364;2023-02-28T14:50:52;17.70;;;8.07;;
8268;SDS011;4174;48.304;16.364;2023-02-28T14:56:56;14.85;;;7.40;;
8268;SDS011;4174;48.304;16.364;2023-02-28T15:09:27;17.87;;;8.10;;
8268;SDS011;4174;48.304;16.364;2023-02-28T15:15:57;18.30;;;8.47;;
8268;SDS011;4174;48.304;16.364;2023-02-28T15:22:04;17.23;;;7.70;;
8268;SDS011;4174;48.304;16.364;2023-02-28T15:28:14;17.73;;;7.65;;
8268;SDS011;4174;48.304;16.364;2023-02-28T15:34:20;16.05;;;8.05;;
8268;SDS011;4174;48.304;16.364;2023-02-28T15:40:32;16.87;;;7.63;;
8268;SDS011;4174;48.304;16.364;2023-02-28T15:46:41;16.07;;;7.37;;
8268;SDS011;4174;48.304;16.364;2023-02-28T15:53:01;18.50;;;7.18;;
8268;SDS011;4174;48.304;16.364;2023-02-28T15:59:06;17.17;;;7.60;;
8268;SDS011;4174;48.304;16.364;2023-02-28T16:05:19;16.90;;;7.50;;
8268;SDS011;4174;48.304;16.364;2023-02-28T16:11:39;15.00;;;7.10;;
8268;SDS011;4174;48.304;16.364;2023-02-28T16:17:54;16.80;;;7.53;;
8268;SDS011;4174;48.304;16.364;2023-02-28T16:23:59;17.03;;;7.60;;
8268;SDS011;4174;48.304;16.364;2023-02-28T16:30:07;17.43;;;8.03;;
8268;SDS011;4174;48.304;16.364;2023-02-28T16:36:15;16.98;;;7.05;;
8268;SDS011;4174;48.304;16.364;2023-02-28T16:42:25;14.80;;;6.65;;
8268;SDS011;4174;48.304;16.364;2023-02-28T16:48:31;14.97;;;6.27;;
8268;SDS011;4174;48.304;16.364;2023-02-28T16:54:37;15.05;;;6.45;;
8268;SDS011;4174;48.304;16.364;2023-02-28T17:00:41;17.12;;;6.68;;
8268;SDS011;4174;48.304;16.364;2023-02-28T17:06:47;16.83;;;7.10;;
8268;SDS011;4174;48.304;16.364;2023-02-28T17:12:51;14.77;;;6.40;;
8268;SDS011;4174;48.304;16.364;2023-02-28T17:18:58;14.87;;;6.03;;
8268;SDS011;4174;48.304;16.364;2023-02-28T17:25:03;16.55;;;7.03;;
8268;SDS011;4174;48.304;16.364;2023-02-28T17:31:10;15.40;;;6.77;;
8268;SDS011;4174;48.304;16.364;2023-02-28T17:37:14;16.27;;;6.80;;
8268;SDS011;4174;48.304;16.364;2023-02-28T17:43:18;15.48;;;6.90;;
8268;SDS011;4174;48.304;16.364;2023-02-28T17:49:25;17.52;;;7.60;;
8268;SDS011;4174;48.304;16.364;2023-02-28T17:55:32;17.25;;;6.90;;
8268;SDS011;4174;48.304;16.364;2023-02-28T18:01:39;18.43;;;8.00;;
8268;SDS011;4174;48.304;16.364;2023-02-28T18:07:43;19.63;;;7.90;;
8268;SDS011;4174;48.304;16.364;2023-02-28T18:13:52;20.50;;;8.30;;
8268;SDS011;4174;48.304;16.364;2023-02-28T18:19:56;19.55;;;7.70;;
8268;SDS011;4174;48.304;16.364;2023-02-28T18:26:06;17.43;;;7.50;;
8268;SDS011;4174;48.304;16.364;2023-02-28T18:32:11;17.50;;;8.00;;
8268;SDS011;4174;48.304;16.364;2023-02-28T18:38:17;18.60;;;7.53;;
8268;SDS011;4174;48.304;16.364;2023-02-28T18:44:24;18.23;;;6.93;;
8268;SDS011;4174;48.304;16.364;2023-02-28T18:50:29;16.53;;;6.97;;
8268;SDS011;4174;48.304;16.364;2023-02-28T18:56:37;20.15;;;8.65;;
8268;SDS011;4174;48.304;16.364;2023-02-28T19:02:42;22.73;;;9.67;;
8268;SDS011;4174;48.304;16.364;2023-02-28T19:08:51;20.58;;;9.10;;
8268;SDS011;4174;48.304;16.364;2023-02-28T19:14:56;26.07;;;10.30;;
8268;SDS011;4174;48.304;16.364;2023-02-28T19:21:08;36.72;;;14.55;;
8268;SDS011;4174;48.304;16.364;2023-02-28T19:27:13;34.17;;;14.80;;
8268;SDS011;4174;48.304;16.364;2023-02-28T19:33:18;31.92;;;13.62;;
8268;SDS011;4174;48.304;16.364;2023-02-28T19:39:24;35.63;;;14.20;;
8268;SDS011;4174;48.304;16.364;2023-02-28T19:45:33;29.50;;;12.80;;
8268;SDS011;4174;48.304;16.364;2023-02-28T19:51:40;28.17;;;11.60;;
8268;SDS011;4174;48.304;16.364;2023-02-28T19:57:45;25.60;;;10.17;;
8268;SDS011;4174;48.304;16.364;2023-02-28T20:03:58;29.70;;;12.00;;
8268;SDS011;4174;48.304;16.364;2023-02-28T20:10:03;27.73;;;10.90;;
8268;SDS011;4174;48.304;16.364;2023-02-28T20:16:11;24.07;;;10.40;;
8268;SDS011;4174;48.304;16.364;2023-02-28T20:22:16;23.48;;;10.57;;
8268;SDS011;4174;48.304;16.364;2023-02-28T20:28:22;26.83;;;11.52;;
8268;SDS011;4174;48.304;16.364;2023-02-28T20:34:28;28.60;;;12.45;;
8268;SDS011;4174;48.304;16.364;2023-02-28T20:40:35;38.33;;;14.45;;
8268;SDS011;4174;48.304;16.364;2023-02-28T20:46:43;27.40;;;12.40;;
8268;SDS011;4174;48.304;16.364;2023-02-28T20:52:48;29.50;;;12.10;;
8268;SDS011;4174;48.304;16.364;2023-02-28T20:58:55;31.45;;;12.25;;
8268;SDS011;4174;48.304;16.364;2023-02-28T21:05:00;32.72;;;12.73;;
8268;SDS011;4174;48.304;16.364;2023-02-28T21:11:06;31.83;;;12.85;;
8268;SDS011;4174;48.304;16.364;2023-02-28T21:17:10;29.90;;;12.03;;
8268;SDS011;4174;48.304;16.364;2023-02-28T21:23:19;28.67;;;11.73;;
8268;SDS011;4174;48.304;16.364;2023-02-28T21:29:25;26.80;;;11.83;;
8268;SDS011;4174;48.304;16.364;2023-02-28T21:35:31;27.70;;;12.02;;
8268;SDS011;4174;48.304;16.364;2023-02-28T21:41:38;27.87;;;11.80;;
8268;SDS011;4174;48.304;16.364;2023-02-28T21:47:43;27.65;;;11.82;;
8268;SDS011;4174;48.304;16.364;2023-02-28T21:53:47;28.97;;;12.40;;
8268;SDS011;4174;48.304;16.364;2023-02-28T21:59:52;30.12;;;13.15;;
8268;SDS011;4174;48.304;16.364;2023-02-28T22:05:58;31.40;;;13.02;;
8268;SDS011;4174;48.304;16.364;2023-02-28T22:12:04;31.70;;;13.87;;
8268;SDS011;4174;48.304;16.364;2023-02-28T22:18:16;31.80;;;14.23;;
8268;SDS011;4174;48.304;16.364;2023-02-28T22:24:22;28.92;;;12.65;;
8268;SDS011;4174;48.304;16.364;2023-02-28T22:30:27;32.90;;;13.65;;
8268;SDS011;4174;48.304;16.364;2023-02-28T22:36:35;39.13;;;17.10;;
8268;SDS011;4174;48.304;16.364;2023-02-28T22:42:40;40.03;;;16.20;;
8268;SDS011;4174;48.304;16.364;2023-02-28T22:48:44;33.78;;;13.52;;
8268;SDS011;4174;48.304;16.364;2023-02-28T22:54:53;33.93;;;14.07;;
8268;SDS011;4174;48.304;16.364;2023-02-28T23:01:05;31.60;;;12.88;;
8268;SDS011;4174;48.304;16.364;2023-02-28T23:07:10;33.53;;;13.17;;
8268;SDS011;4174;48.304;16.364;2023-02-28T23:13:16;31.23;;;13.15;;
8268;SDS011;4174;48.304;16.364;2023-02-28T23:19:24;27.65;;;12.27;;
8268;SDS011;4174;48.304;16.364;2023-02-28T23:25:31;30.07;;;12.23;;
8268;SDS011;4174;48.304;16.364;2023-02-28T23:31:36;29.63;;;12.47;;
8268;SDS011;4174;48.304;16.364;2023-02-28T23:38:00;31.33;;;13.03;;
8268;SDS011;4174;48.304;16.364;2023-02-28T23:44:08;33.58;;;13.93;;
8268;SDS011;4174;48.304;16.364;2023-02-28T23:50:16;32.90;;;13.67;;
8268;SDS011;4174;48.304;16.364;2023-02-28T23:56:22;31.37;;;13.20;;
